createdAt,value
2024-03-10T00:00:40.839Z,11.18
2024-03-10T00:03:08.637Z,11.16
2024-03-10T00:05:36.209Z,11.26
2024-03-10T00:08:03.253Z,11.26
2024-03-10T00:10:30.253Z,11.17
2024-03-10T00:12:57.117Z,11.14
2024-03-10T00:15:24.273Z,11.11
2024-03-10T00:17:52.166Z,11.09
2024-03-10T00:20:21.858Z,11.08
2024-03-10T00:22:52.009Z,11.09
2024-03-10T00:25:19.769Z,11.10
2024-03-10T00:27:46.811Z,11.12
2024-03-10T00:30:14.456Z,11.12
2024-03-10T00:32:41.339Z,11.17
2024-03-10T00:35:08.468Z,11.10
2024-03-10T00:37:35.927Z,11.15
2024-03-10T00:40:06.825Z,11.07
2024-03-10T00:42:33.694Z,11.08
2024-03-10T00:45:00.478Z,11.03
2024-03-10T00:47:27.519Z,11.00
2024-03-10T00:49:54.407Z,10.98
2024-03-10T00:52:21.139Z,10.91
2024-03-10T00:54:47.918Z,10.92
2024-03-10T00:57:15.721Z,10.88
2024-03-10T00:59:43.648Z,10.93
2024-03-10T01:02:10.619Z,10.93
2024-03-10T01:04:37.459Z,10.86
2024-03-10T01:07:05.001Z,10.81
2024-03-10T01:09:31.855Z,10.81
2024-03-10T01:11:58.714Z,10.82
2024-03-10T01:14:25.818Z,10.82
2024-03-10T01:16:52.615Z,10.79
2024-03-10T01:19:19.556Z,10.74
2024-03-10T01:21:46.927Z,10.73
2024-03-10T01:24:14.435Z,10.81
2024-03-10T01:26:41.198Z,10.87
2024-03-10T01:29:08.725Z,10.79
2024-03-10T01:31:35.555Z,10.81
2024-03-10T01:34:02.437Z,10.88
2024-03-10T01:36:29.767Z,10.80
2024-03-10T01:38:56.881Z,10.81
2024-03-10T01:41:23.836Z,10.76
2024-03-10T01:43:52.191Z,10.74
2024-03-10T01:46:19.282Z,10.76
2024-03-10T01:48:46.091Z,10.72
2024-03-10T01:51:16.655Z,10.71
2024-03-10T01:53:43.986Z,10.72
2024-03-10T01:56:15.020Z,10.64
2024-03-10T01:58:46.067Z,10.68
2024-03-10T02:01:15.278Z,10.71
2024-03-10T02:03:44.376Z,10.71
2024-03-10T02:06:11.174Z,10.67
2024-03-10T02:08:39.164Z,10.67
2024-03-10T02:11:12.209Z,10.72
2024-03-10T02:13:42.262Z,10.74
2024-03-10T02:16:12.364Z,10.70
2024-03-10T02:18:39.690Z,10.71
2024-03-10T02:21:10.592Z,10.74
2024-03-10T02:23:41.959Z,10.71
2024-03-10T02:26:10.279Z,10.73
2024-03-10T02:28:47.800Z,10.73
2024-03-10T02:31:33.711Z,10.66
2024-03-10T02:34:19.140Z,10.73
2024-03-10T02:37:04.542Z,10.72
2024-03-10T02:39:49.994Z,10.70
2024-03-10T02:42:35.383Z,10.74
2024-03-10T02:45:20.708Z,10.69
2024-03-10T02:47:47.545Z,10.68
2024-03-10T02:50:14.447Z,10.75
2024-03-10T02:52:41.281Z,10.66
2024-03-10T02:55:10.107Z,10.66
2024-03-10T02:57:36.848Z,10.70
2024-03-10T03:00:03.982Z,10.66
2024-03-10T03:02:31.289Z,10.63
2024-03-10T03:04:58.416Z,10.59
2024-03-10T03:07:25.354Z,10.60
2024-03-10T03:09:52.123Z,10.59
2024-03-10T03:12:19.004Z,10.64
2024-03-10T03:14:45.834Z,10.55
2024-03-10T03:17:12.590Z,10.57
2024-03-10T03:19:39.492Z,10.54
2024-03-10T03:22:06.532Z,10.44
2024-03-10T03:24:33.306Z,10.45
2024-03-10T03:27:00.204Z,10.43
2024-03-10T03:29:27.258Z,10.37
2024-03-10T03:31:54.112Z,10.45
2024-03-10T03:34:21.312Z,10.37
2024-03-10T03:36:48.492Z,10.44
2024-03-10T03:39:16.658Z,10.46
2024-03-10T03:41:43.528Z,10.50
2024-03-10T03:44:10.290Z,10.36
2024-03-10T03:46:37.168Z,10.39
2024-03-10T03:49:04.148Z,10.44
2024-03-10T03:51:30.857Z,10.39
2024-03-10T03:53:57.963Z,10.40
2024-03-10T03:56:24.793Z,10.36
2024-03-10T03:58:51.690Z,10.30
2024-03-10T04:01:19.114Z,10.35
2024-03-10T04:03:45.879Z,10.31
2024-03-10T04:06:12.738Z,10.32
2024-03-10T04:08:39.508Z,10.27
2024-03-10T04:11:06.309Z,10.23
2024-03-10T04:13:33.150Z,10.18
2024-03-10T04:15:59.877Z,10.11
2024-03-10T04:18:27.949Z,10.11
2024-03-10T04:20:54.869Z,10.15
2024-03-10T04:23:23.161Z,10.14
2024-03-10T04:25:49.943Z,10.20
2024-03-10T04:28:17.262Z,10.06
2024-03-10T04:30:43.984Z,10.10
2024-03-10T04:33:10.817Z,10.16
2024-03-10T04:35:39.599Z,10.16
2024-03-10T04:38:06.558Z,10.10
2024-03-10T04:40:33.316Z,10.13
2024-03-10T04:43:00.064Z,10.09
2024-03-10T04:45:27.255Z,10.04
2024-03-10T04:47:54.167Z,10.06
2024-03-10T04:50:22.574Z,10.02
2024-03-10T04:52:49.472Z,10.02
2024-03-10T04:55:16.364Z,10.00
2024-03-10T04:57:43.196Z,9.98
2024-03-10T05:00:13.727Z,10.03
2024-03-10T05:02:40.453Z,9.94
2024-03-10T05:05:08.587Z,9.92
2024-03-10T05:07:35.384Z,10.02
2024-03-10T05:10:02.216Z,9.93
2024-03-10T05:12:29.502Z,9.95
2024-03-10T05:14:56.246Z,9.87
2024-03-10T05:17:23.064Z,9.88
2024-03-10T05:19:49.940Z,9.83
2024-03-10T05:22:18.521Z,9.83
2024-03-10T05:24:45.293Z,9.87
2024-03-10T05:27:12.177Z,9.88
2024-03-10T05:29:38.929Z,9.87
2024-03-10T05:32:06.089Z,9.86
2024-03-10T05:34:33.834Z,9.86
2024-03-10T05:37:00.879Z,9.80
2024-03-10T05:39:28.982Z,9.68
2024-03-10T05:41:55.896Z,9.54
2024-03-10T05:44:22.742Z,9.53
2024-03-10T05:46:49.758Z,9.59
2024-03-10T05:49:16.490Z,9.53
2024-03-10T05:51:43.271Z,9.51
2024-03-10T05:54:10.679Z,9.58
2024-03-10T05:56:37.593Z,9.55
2024-03-10T05:59:04.631Z,9.57
2024-03-10T06:01:31.540Z,9.54
2024-03-10T06:03:58.333Z,9.64
2024-03-10T06:06:25.042Z,9.48
2024-03-10T06:08:51.840Z,9.53
2024-03-10T06:11:20.308Z,9.53
2024-03-10T06:13:47.456Z,9.46
2024-03-10T06:16:14.369Z,9.43
2024-03-10T06:18:57.245Z,9.44
2024-03-10T06:21:45.238Z,9.46
2024-03-10T06:24:31.760Z,9.54
2024-03-10T06:26:59.382Z,9.46
2024-03-10T06:29:26.386Z,9.45
2024-03-10T06:31:53.399Z,9.49
2024-03-10T06:34:23.313Z,9.47
2024-03-10T06:36:50.592Z,9.50
2024-03-10T06:39:21.105Z,9.57
2024-03-10T06:41:48.432Z,9.58
2024-03-10T06:44:20.672Z,9.61
2024-03-10T06:46:47.514Z,9.59
2024-03-10T06:49:15.958Z,9.53
2024-03-10T06:51:42.975Z,9.52
2024-03-10T06:54:09.767Z,9.62
2024-03-10T06:56:38.015Z,9.66
2024-03-10T06:59:05.099Z,9.66
2024-03-10T07:01:32.485Z,9.64
2024-03-10T07:03:59.933Z,9.62
2024-03-10T07:06:28.438Z,9.70
2024-03-10T07:08:55.806Z,9.57
2024-03-10T07:11:23.551Z,9.63
2024-03-10T07:13:50.539Z,9.60
2024-03-10T07:16:17.460Z,9.60
2024-03-10T07:18:44.302Z,9.65
2024-03-10T07:21:11.650Z,9.61
2024-03-10T07:23:38.491Z,9.54
2024-03-10T07:26:05.342Z,9.58
2024-03-10T07:28:32.986Z,9.56
2024-03-10T07:31:01.176Z,9.58
2024-03-10T07:33:28.292Z,9.69
2024-03-10T07:35:55.132Z,9.68
2024-03-10T07:38:22.096Z,9.72
2024-03-10T07:40:54.295Z,9.74
2024-03-10T07:43:24.343Z,9.74
2024-03-10T07:45:51.740Z,9.77
2024-03-10T07:48:18.637Z,9.79
2024-03-10T07:50:45.494Z,9.83
2024-03-10T07:53:12.297Z,9.75
2024-03-10T07:55:39.112Z,9.80
2024-03-10T07:58:08.690Z,9.87
2024-03-10T08:00:38.649Z,9.87
2024-03-10T08:03:05.808Z,9.89
2024-03-10T08:05:32.693Z,9.94
2024-03-10T08:07:59.523Z,9.84
2024-03-10T08:10:26.998Z,9.85
2024-03-10T08:12:53.758Z,9.85
2024-03-10T08:15:21.232Z,9.98
2024-03-10T08:17:48.293Z,10.05
2024-03-10T08:20:16.659Z,10.04
2024-03-10T08:22:44.567Z,10.06
2024-03-10T08:25:14.307Z,10.18
2024-03-10T08:27:41.944Z,10.24
2024-03-10T08:30:11.766Z,10.19
2024-03-10T08:32:39.416Z,10.18
2024-03-10T08:35:14.257Z,10.16
2024-03-10T08:37:47.008Z,10.20
2024-03-10T08:40:17.355Z,10.27
2024-03-10T08:42:44.638Z,10.34
2024-03-10T08:45:13.134Z,10.44
2024-03-10T08:47:40.765Z,10.43
2024-03-10T08:50:11.995Z,10.48
2024-03-10T08:52:40.310Z,10.61
2024-03-10T08:55:08.815Z,10.65
2024-03-10T08:57:37.422Z,10.68
2024-03-10T09:00:05.859Z,10.61
2024-03-10T09:02:33.214Z,10.67
2024-03-10T09:05:01.021Z,10.76
2024-03-10T09:07:29.795Z,10.83
2024-03-10T09:09:56.562Z,10.99
2024-03-10T09:12:23.501Z,11.04
2024-03-10T09:14:51.368Z,11.11
2024-03-10T09:17:19.790Z,11.18
2024-03-10T09:19:47.587Z,11.31
2024-03-10T09:22:15.098Z,11.34
2024-03-10T09:24:44.165Z,11.46
2024-03-10T09:27:11.376Z,11.58
2024-03-10T09:29:38.913Z,11.64
2024-03-10T09:32:07.931Z,11.79
2024-03-10T09:34:38.190Z,11.83
2024-03-10T09:37:08.212Z,11.90
2024-03-10T09:39:36.268Z,11.96
2024-03-10T09:42:05.651Z,11.96
2024-03-10T09:44:34.239Z,12.02
2024-03-10T09:47:02.397Z,12.05
2024-03-10T09:49:29.305Z,12.13
2024-03-10T09:51:58.658Z,12.20
2024-03-10T09:54:26.987Z,12.26
2024-03-10T09:56:54.281Z,12.34
2024-03-10T09:59:45.162Z,12.41
2024-03-10T10:02:33.536Z,12.42
2024-03-10T10:05:04.281Z,12.41
2024-03-10T10:07:31.228Z,12.50
2024-03-10T10:09:59.720Z,12.56
2024-03-10T10:12:27.983Z,12.53
2024-03-10T10:14:55.254Z,12.66
2024-03-10T10:17:23.832Z,12.72
2024-03-10T10:19:52.426Z,12.76
2024-03-10T10:22:22.206Z,12.76
2024-03-10T10:25:07.955Z,12.82
2024-03-10T10:27:50.672Z,12.85
2024-03-10T10:30:23.937Z,12.97
2024-03-10T10:33:04.753Z,13.09
2024-03-10T10:35:35.981Z,13.08
2024-03-10T10:38:12.890Z,13.18
2024-03-10T10:40:56.023Z,13.31
2024-03-10T10:43:22.941Z,13.46
2024-03-10T10:45:50.245Z,13.65
2024-03-10T10:48:17.713Z,13.78
2024-03-10T10:50:44.975Z,14.07
2024-03-10T10:53:13.723Z,14.34
2024-03-10T10:55:41.946Z,14.51
2024-03-10T10:58:13.282Z,14.76
2024-03-10T11:00:44.348Z,15.07
2024-03-10T11:03:16.388Z,15.14
2024-03-10T11:06:03.480Z,15.31
2024-03-10T11:08:38.057Z,15.53
2024-03-10T11:11:05.432Z,15.54
2024-03-10T11:13:35.864Z,15.51
2024-03-10T11:16:15.869Z,15.69
2024-03-10T11:18:43.591Z,15.79
2024-03-10T11:21:21.492Z,15.92
2024-03-10T11:23:50.747Z,15.81
2024-03-10T11:26:25.545Z,15.72
2024-03-10T11:29:01.606Z,15.64
2024-03-10T11:31:28.367Z,15.65
2024-03-10T11:33:57.700Z,15.45
2024-03-10T11:36:25.464Z,15.39
2024-03-10T11:38:55.907Z,15.46
2024-03-10T11:41:24.982Z,15.43
2024-03-10T11:43:55.059Z,15.35
2024-03-10T11:46:37.254Z,15.30
2024-03-10T11:49:04.117Z,15.40
2024-03-10T11:51:33.017Z,15.43
2024-03-10T11:54:00.961Z,15.47
2024-03-10T11:56:27.834Z,15.55
2024-03-10T11:58:59.321Z,15.53
2024-03-10T12:01:30.510Z,15.49
2024-03-10T12:03:59.648Z,15.44
2024-03-10T12:06:28.389Z,15.37
2024-03-10T12:08:55.624Z,15.29
2024-03-10T12:11:27.408Z,15.26
2024-03-10T12:13:54.759Z,15.32
2024-03-10T12:16:23.693Z,15.32
2024-03-10T12:18:51.355Z,15.37
2024-03-10T12:21:20.183Z,15.36
2024-03-10T12:23:47.714Z,15.42
2024-03-10T12:26:16.123Z,15.45
2024-03-10T12:28:44.939Z,15.62
2024-03-10T12:31:16.068Z,15.81
2024-03-10T12:33:47.542Z,15.94
2024-03-10T12:36:14.526Z,15.94
2024-03-10T12:38:42.148Z,15.94
2024-03-10T12:41:09.798Z,15.92
2024-03-10T12:43:38.220Z,15.95
2024-03-10T12:46:05.935Z,15.94
2024-03-10T12:48:35.858Z,16.01
2024-03-10T12:51:07.421Z,16.23
2024-03-10T12:53:35.043Z,16.69
2024-03-10T12:56:21.177Z,17.08
2024-03-10T12:58:48.320Z,17.36
2024-03-10T13:01:18.298Z,17.28
2024-03-10T13:03:45.891Z,17.23
2024-03-10T13:06:16.340Z,17.09
2024-03-10T13:08:45.148Z,17.01
2024-03-10T13:11:15.229Z,16.88
2024-03-10T13:13:42.988Z,16.83
2024-03-10T13:16:10.585Z,16.89
2024-03-10T13:18:37.503Z,16.91
2024-03-10T13:21:04.521Z,17.10
2024-03-10T13:23:31.602Z,17.17
2024-03-10T13:25:58.473Z,17.30
2024-03-10T13:28:25.338Z,17.40
2024-03-10T13:30:52.177Z,17.35
2024-03-10T13:33:20.113Z,17.18
2024-03-10T13:35:47.385Z,17.15
2024-03-10T13:38:14.323Z,17.27
2024-03-10T13:40:41.083Z,17.20
2024-03-10T13:43:08.171Z,17.17
2024-03-10T13:45:39.706Z,17.10
2024-03-10T13:48:10.104Z,17.00
2024-03-10T13:50:37.658Z,16.84
2024-03-10T13:53:06.753Z,16.72
2024-03-10T13:55:34.078Z,16.56
2024-03-10T13:58:01.087Z,16.42
2024-03-10T14:00:27.924Z,16.27
2024-03-10T14:02:56.063Z,16.22
2024-03-10T14:05:23.766Z,16.18
2024-03-10T14:07:50.667Z,16.15
2024-03-10T14:10:20.814Z,16.09
2024-03-10T14:12:47.684Z,16.16
2024-03-10T14:15:16.868Z,16.21
2024-03-10T14:17:46.863Z,16.27
2024-03-10T14:20:15.703Z,16.32
2024-03-10T14:22:47.409Z,16.60
2024-03-10T14:25:14.620Z,16.89
2024-03-10T14:27:46.488Z,17.09
2024-03-10T14:30:14.497Z,17.25
2024-03-10T14:32:42.115Z,17.41
2024-03-10T14:35:10.724Z,17.38
2024-03-10T14:37:41.286Z,17.25
2024-03-10T14:40:16.592Z,17.03
2024-03-10T14:42:43.881Z,16.91
2024-03-10T14:45:11.813Z,16.75
2024-03-10T14:47:39.632Z,16.61
2024-03-10T14:50:07.287Z,16.52
2024-03-10T14:52:34.108Z,16.45
2024-03-10T14:55:05.702Z,16.34
2024-03-10T14:57:32.870Z,16.21
2024-03-10T15:00:01.482Z,16.10
2024-03-10T15:02:28.680Z,15.97
2024-03-10T15:04:55.480Z,15.87
2024-03-10T15:07:24.307Z,15.83
2024-03-10T15:09:51.065Z,15.78
2024-03-10T15:12:17.900Z,15.73
2024-03-10T15:14:47.950Z,15.66
2024-03-10T15:17:15.857Z,15.72
2024-03-10T15:19:42.664Z,15.61
2024-03-10T15:22:09.491Z,15.54
2024-03-10T15:24:37.984Z,15.52
2024-03-10T15:27:08.095Z,15.48
2024-03-10T15:29:36.117Z,15.53
2024-03-10T15:32:04.138Z,15.43
2024-03-10T15:34:31.923Z,15.42
2024-03-10T15:37:00.686Z,15.40
2024-03-10T15:39:29.733Z,15.39
2024-03-10T15:41:58.166Z,15.33
2024-03-10T15:44:29.140Z,15.35
2024-03-10T15:46:57.762Z,15.31
2024-03-10T15:49:24.514Z,15.27
2024-03-10T15:51:51.656Z,15.24
2024-03-10T15:54:18.434Z,15.24
2024-03-10T15:56:45.285Z,15.21
2024-03-10T15:59:12.154Z,15.13
2024-03-10T16:01:39.455Z,15.05
2024-03-10T16:04:08.114Z,14.97
2024-03-10T16:06:36.011Z,14.91
2024-03-10T16:09:05.768Z,14.85
2024-03-10T16:11:34.044Z,14.83
2024-03-10T16:14:07.291Z,14.73
2024-03-10T16:16:34.406Z,14.69
2024-03-10T16:19:01.098Z,14.59
2024-03-10T16:21:32.619Z,14.58
2024-03-10T16:23:59.410Z,14.49
2024-03-10T16:26:26.593Z,14.47
2024-03-10T16:28:53.350Z,14.42
2024-03-10T16:31:20.210Z,14.44
2024-03-10T16:33:47.198Z,14.36
2024-03-10T16:36:14.253Z,14.37
2024-03-10T16:38:44.730Z,14.28
2024-03-10T16:41:12.576Z,14.21
2024-03-10T16:43:39.943Z,14.21
2024-03-10T16:46:07.504Z,14.18
2024-03-10T16:48:34.647Z,14.23
2024-03-10T16:51:01.637Z,14.15
2024-03-10T16:53:28.523Z,14.13
2024-03-10T16:55:56.490Z,14.09
2024-03-10T16:58:24.147Z,14.06
2024-03-10T17:00:52.208Z,14.06
2024-03-10T17:03:19.094Z,14.03
2024-03-10T17:05:46.097Z,13.95
2024-03-10T17:08:18.367Z,13.88
2024-03-10T17:10:48.408Z,13.88
2024-03-10T17:13:15.473Z,13.78
2024-03-10T17:15:43.725Z,13.75
2024-03-10T17:18:10.682Z,13.81
2024-03-10T17:20:37.888Z,13.75
2024-03-10T17:23:04.995Z,13.74
2024-03-10T17:25:31.873Z,13.75
2024-03-10T17:27:59.292Z,13.72
2024-03-10T17:30:26.146Z,13.72
2024-03-10T17:32:55.136Z,13.65
2024-03-10T17:35:22.604Z,13.56
2024-03-10T17:37:49.609Z,13.54
2024-03-10T17:40:16.940Z,13.53
2024-03-10T17:42:44.546Z,13.55
2024-03-10T17:45:13.044Z,13.55
2024-03-10T17:47:40.513Z,13.59
2024-03-10T17:50:09.344Z,13.54
2024-03-10T17:52:37.061Z,13.47
2024-03-10T17:55:08.020Z,13.46
2024-03-10T17:57:36.530Z,13.40
2024-03-10T18:00:08.314Z,13.41
2024-03-10T18:02:35.882Z,13.40
2024-03-10T18:05:05.248Z,13.39
2024-03-10T18:07:32.923Z,13.32
2024-03-10T18:10:00.600Z,13.33
2024-03-10T18:12:27.682Z,13.31
2024-03-10T18:14:55.135Z,13.34
2024-03-10T18:17:22.458Z,13.33
2024-03-10T18:19:51.051Z,13.33
2024-03-10T18:22:17.966Z,13.33
2024-03-10T18:24:45.617Z,13.35
2024-03-10T18:27:13.257Z,13.32
2024-03-10T18:29:43.096Z,13.32
2024-03-10T18:32:09.987Z,13.24
2024-03-10T18:34:36.827Z,13.22
2024-03-10T18:37:05.449Z,13.21
2024-03-10T18:39:34.198Z,13.29
2024-03-10T18:42:02.170Z,13.22
2024-03-10T18:44:29.210Z,13.27
2024-03-10T18:46:56.297Z,13.18
2024-03-10T18:49:25.431Z,13.15
2024-03-10T18:51:52.180Z,13.12
2024-03-10T18:54:19.515Z,13.10
2024-03-10T18:56:46.789Z,13.13
2024-03-10T18:59:14.109Z,13.11
2024-03-10T19:01:42.692Z,13.13
2024-03-10T19:04:12.851Z,13.07
2024-03-10T19:06:39.712Z,13.08
2024-03-10T19:09:09.933Z,13.10
2024-03-10T19:11:36.998Z,13.14
2024-03-10T19:14:05.611Z,13.11
2024-03-10T19:16:32.498Z,13.06
2024-03-10T19:18:59.279Z,13.07
2024-03-10T19:21:26.698Z,13.04
2024-03-10T19:23:53.634Z,13.06
2024-03-10T19:26:20.541Z,12.99
2024-03-10T19:28:48.305Z,12.94
2024-03-10T19:31:15.135Z,12.97
2024-03-10T19:33:41.998Z,13.02
2024-03-10T19:36:12.245Z,12.99
2024-03-10T19:38:39.326Z,12.91
2024-03-10T19:41:06.179Z,12.89
2024-03-10T19:43:32.995Z,12.96
2024-03-10T19:46:00.102Z,12.93
2024-03-10T19:48:26.879Z,12.95
2024-03-10T19:50:55.081Z,12.87
2024-03-10T19:53:23.444Z,12.82
2024-03-10T19:55:52.312Z,12.81
2024-03-10T19:58:19.585Z,12.82
2024-03-10T20:00:48.745Z,12.78
2024-03-10T20:03:16.151Z,12.77
2024-03-10T20:05:46.441Z,12.75
2024-03-10T20:08:16.733Z,12.74
2024-03-10T20:10:43.648Z,12.71
2024-03-10T20:13:13.336Z,12.80
2024-03-10T20:15:40.150Z,12.74
2024-03-10T20:18:07.222Z,12.70
2024-03-10T20:20:34.880Z,12.72
2024-03-10T20:23:02.025Z,12.71
2024-03-10T20:25:29.373Z,12.71
2024-03-10T20:28:00.241Z,12.66
2024-03-10T20:30:31.723Z,12.66
2024-03-10T20:32:59.491Z,12.69
2024-03-10T20:35:28.257Z,12.70
2024-03-10T20:37:56.424Z,12.68
2024-03-10T20:40:23.300Z,12.71
2024-03-10T20:42:50.097Z,12.61
2024-03-10T20:45:16.985Z,12.57
2024-03-10T20:47:47.115Z,12.55
2024-03-10T20:50:15.764Z,12.52
2024-03-10T20:52:43.947Z,12.57
2024-03-10T20:55:12.371Z,12.53
2024-03-10T20:57:40.168Z,12.59
2024-03-10T21:00:11.715Z,12.63
2024-03-10T21:02:39.120Z,12.63
2024-03-10T21:05:06.130Z,12.55
2024-03-10T21:07:32.918Z,12.53
2024-03-10T21:10:00.593Z,12.54
2024-03-10T21:12:27.446Z,12.53
2024-03-10T21:14:54.274Z,12.48
2024-03-10T21:17:21.924Z,12.48
2024-03-10T21:19:48.778Z,12.48
2024-03-10T21:22:20.494Z,12.44
2024-03-10T21:24:47.250Z,12.42
2024-03-10T21:27:14.147Z,12.42
2024-03-10T21:29:40.930Z,12.41
2024-03-10T21:32:09.174Z,12.39
2024-03-10T21:34:36.347Z,12.51
2024-03-10T21:37:05.140Z,12.45
2024-03-10T21:39:32.745Z,12.40
2024-03-10T21:41:59.590Z,12.43
2024-03-10T21:44:26.434Z,12.38
2024-03-10T21:46:53.616Z,12.33
2024-03-10T21:49:20.372Z,12.30
2024-03-10T21:51:47.171Z,12.26
2024-03-10T21:54:13.989Z,12.24
2024-03-10T21:56:41.754Z,12.29
2024-03-10T21:59:08.737Z,12.30
2024-03-10T22:01:36.447Z,12.38
2024-03-10T22:04:06.154Z,12.36
2024-03-10T22:06:33.754Z,12.32
2024-03-10T22:09:00.942Z,12.34
2024-03-10T22:11:28.049Z,12.27
2024-03-10T22:13:56.626Z,12.23
2024-03-10T22:16:23.511Z,12.26
2024-03-10T22:18:50.270Z,12.29
2024-03-10T22:21:17.982Z,12.37
2024-03-10T22:23:44.890Z,12.25
2024-03-10T22:26:11.861Z,12.20
2024-03-10T22:28:38.639Z,12.17
2024-03-10T22:31:06.739Z,12.16
2024-03-10T22:33:33.560Z,12.17
2024-03-10T22:36:00.893Z,12.15
2024-03-10T22:38:27.721Z,12.19
2024-03-10T22:40:54.517Z,12.22
2024-03-10T22:43:24.798Z,12.25
2024-03-10T22:45:51.598Z,12.22
2024-03-10T22:48:18.925Z,12.19
2024-03-10T22:50:46.586Z,12.15
2024-03-10T22:53:13.513Z,12.19
2024-03-10T22:55:41.516Z,12.16
2024-03-10T22:58:08.802Z,12.16
2024-03-10T23:00:38.488Z,12.09
2024-03-10T23:03:08.808Z,12.08
2024-03-10T23:05:36.675Z,12.13
2024-03-10T23:08:06.398Z,12.13
2024-03-10T23:10:36.016Z,12.10
2024-03-10T23:13:05.568Z,12.06
2024-03-10T23:15:33.978Z,12.01
2024-03-10T23:18:01.653Z,12.05
2024-03-10T23:20:29.091Z,12.09
2024-03-10T23:23:01.451Z,12.12
2024-03-10T23:25:31.499Z,12.03
2024-03-10T23:28:01.407Z,11.98
2024-03-10T23:30:28.243Z,12.01
2024-03-10T23:32:56.411Z,11.96
2024-03-10T23:35:23.650Z,11.89
2024-03-10T23:37:50.656Z,11.97
2024-03-10T23:40:17.830Z,11.89
2024-03-10T23:42:45.508Z,12.01
2024-03-10T23:45:15.548Z,12.04
2024-03-10T23:47:45.080Z,12.07
2024-03-10T23:50:15.525Z,11.92
2024-03-10T23:52:44.115Z,11.87
2024-03-10T23:55:13.575Z,11.84
2024-03-10T23:57:41.216Z,11.82
